Sunburg, Minnesota
Current Conditions -  °F | °C
As of 4:15 PM on Thursday 27 Nov 2014 (Local Time) from KBDH Reporting Station
Clear Clear  
Wind Chill: -10°   Ceiling: Unl
Heat Index:   Visibility: 10mi
Dew Point: -4°   Wind: 10mph
Humidity: 66%   Direction: 140°SE
Pressure: 30.35"   Gusts: NA
Location:  45.35°N, 95.24°W
Report Text: KBDH 272215Z AUTO 14009KT 10SM CLR M15/M20 A3035 RMK AO2
Loading
Personal Weather Stations






























Interactive Weather Map New forecast layout! Learn more

10-Day Weather Forecast

Advertisements
Track Severe Weather on mobile